Time;durP1;ratioP1;P1;durP2;ratioP2;P2;SDS_P1;SDS_P2;PMS_P1;PMS_P2;Temp;Humidity;BMP_temperature;BMP_pressure;BME280_temperature;BME280_humidity;BME280_pressure;Samples;Min_cycle;Max_cycle;Signal;HPM_P1;HPM_P2
2021/03/06 00:01:00;;;;;;;11.43;6.97;;;;;;;9.92;100.00;96425.16;5015472;28;20250;-85
2021/03/06 00:03:28;;;;;;;7.30;6.20;;;;;;;9.74;100.00;96433.03;5015194;28;20239;-86
2021/03/06 00:05:55;;;;;;;12.13;7.07;;;;;;;9.63;100.00;96423.59;5014768;28;20290;-85
2021/03/06 00:08:24;;;;;;;9.13;6.60;;;;;;;9.94;100.00;96426.66;5014938;28;20286;-85
2021/03/06 00:10:52;;;;;;;8.37;7.23;;;;;;;9.69;100.00;96432.63;5015039;28;20237;-85
2021/03/06 00:13:19;;;;;;;6.67;6.03;;;;;;;9.74;100.00;96439.09;5015244;28;20223;-85
2021/03/06 00:15:47;;;;;;;7.80;6.40;;;;;;;9.59;100.00;96448.44;5015269;28;20210;-85
2021/03/06 00:18:14;;;;;;;8.27;6.07;;;;;;;9.45;100.00;96438.47;5015024;28;20275;-85
2021/03/06 00:20:41;;;;;;;9.33;6.23;;;;;;;9.37;100.00;96447.06;5015144;28;20291;-85
2021/03/06 00:23:08;;;;;;;7.07;6.33;;;;;;;9.16;100.00;96449.94;5014800;28;20318;-85
2021/03/06 00:25:35;;;;;;;7.97;6.23;;;;;;;9.27;100.00;96446.28;5014968;28;20203;-85
2021/03/06 00:28:02;;;;;;;8.10;6.20;;;;;;;9.31;100.00;96452.06;5014775;28;20278;-85
2021/03/06 00:30:29;;;;;;;8.47;6.07;;;;;;;9.39;100.00;96445.13;5014756;28;20191;-86
2021/03/06 00:32:56;;;;;;;8.57;6.23;;;;;;;9.48;100.00;96446.03;5014948;28;20691;-85
2021/03/06 00:35:23;;;;;;;10.43;6.30;;;;;;;9.55;100.00;96436.59;5014742;28;20199;-85
2021/03/06 00:37:51;;;;;;;9.97;7.07;;;;;;;9.33;100.00;96439.66;5014596;28;20294;-85
2021/03/06 00:40:18;;;;;;;7.40;6.70;;;;;;;9.06;100.00;96443.91;5014594;28;20275;-86
2021/03/06 00:42:45;;;;;;;9.87;6.67;;;;;;;9.00;100.00;96440.06;5014341;28;20231;-85
2021/03/06 00:45:12;;;;;;;7.87;6.23;;;;;;;9.10;100.00;96445.25;5014910;28;20210;-85
2021/03/06 00:47:39;;;;;;;10.33;6.03;;;;;;;8.98;100.00;96451.69;5014462;28;20235;-85
2021/03/06 00:50:09;;;;;;;6.53;5.73;;;;;;;9.03;100.00;96439.78;5014319;28;20762;-85
2021/03/06 00:52:36;;;;;;;7.90;6.17;;;;;;;8.94;100.00;96451.16;5014446;28;20196;-85
2021/03/06 00:55:04;;;;;;;8.20;6.60;;;;;;;9.15;100.00;96450.91;5014341;28;20362;-85
2021/03/06 00:57:31;;;;;;;8.17;6.33;;;;;;;9.20;100.00;96453.91;5014464;28;20302;-85
2021/03/06 00:59:58;;;;;;;9.10;6.37;;;;;;;9.14;100.00;96458.91;5014408;28;20207;-85
2021/03/06 01:02:24;;;;;;;9.43;7.50;;;;;;;9.24;100.00;96451.81;5014007;28;20261;-85
2021/03/06 01:04:51;;;;;;;8.80;6.40;;;;;;;9.34;100.00;96449.97;5014455;28;20206;-85
2021/03/06 01:07:18;;;;;;;8.10;6.33;;;;;;;9.21;100.00;96454.72;5014147;28;20286;-86
2021/03/06 01:09:45;;;;;;;8.90;6.23;;;;;;;9.18;100.00;96450.63;5013947;28;20195;-85
2021/03/06 01:12:13;;;;;;;7.33;6.57;;;;;;;9.32;100.00;96454.56;5014099;28;20199;-85
2021/03/06 01:14:39;;;;;;;7.63;6.83;;;;;;;9.24;100.00;96457.88;5014035;28;20207;-85
2021/03/06 01:17:06;;;;;;;8.50;6.37;;;;;;;9.35;100.00;96459.53;5014003;28;20213;-85
2021/03/06 01:19:33;;;;;;;7.10;6.20;;;;;;;9.13;100.00;96465.13;5013758;28;20200;-85
2021/03/06 01:22:00;;;;;;;10.43;6.43;;;;;;;9.28;100.00;96463.66;5013511;28;20199;-85
2021/03/06 01:24:28;;;;;;;9.07;6.03;;;;;;;8.95;100.00;96465.06;5014023;28;20235;-86
2021/03/06 01:26:54;;;;;;;9.13;6.43;;;;;;;8.75;100.00;96464.28;5013792;28;20203;-85
2021/03/06 01:29:22;;;;;;;9.00;6.30;;;;;;;8.68;100.00;96464.03;5013677;28;20200;-85
2021/03/06 01:31:49;;;;;;;9.43;5.63;;;;;;;8.73;100.00;96463.63;5013469;28;20206;-85
2021/03/06 01:34:16;;;;;;;8.73;6.57;;;;;;;8.72;100.00;96454.91;5013459;28;20238;-85
2021/03/06 01:36:43;;;;;;;8.60;6.90;;;;;;;8.65;100.00;96458.25;5013509;28;20210;-85
2021/03/06 01:39:10;;;;;;;9.23;6.23;;;;;;;8.69;100.00;96457.81;5013769;28;20200;-86
2021/03/06 01:41:37;;;;;;;8.47;6.10;;;;;;;8.61;100.00;96454.28;5013723;28;20196;-85
2021/03/06 01:44:04;;;;;;;6.20;5.60;;;;;;;8.67;100.00;96457.16;5013243;28;20724;-85
2021/03/06 01:46:32;;;;;;;8.27;6.53;;;;;;;8.90;100.00;96455.03;5013045;28;20223;-84
2021/03/06 01:49:00;;;;;;;7.07;5.83;;;;;;;8.72;100.00;96462.78;5013304;28;20238;-85
2021/03/06 01:51:27;;;;;;;8.77;5.90;;;;;;;8.79;100.00;96453.38;5013486;28;20204;-85
2021/03/06 01:53:54;;;;;;;7.37;5.73;;;;;;;8.82;100.00;96460.97;5012852;28;20257;-85
2021/03/06 01:56:22;;;;;;;8.00;5.97;;;;;;;8.71;100.00;96458.50;5013258;28;20637;-85
2021/03/06 01:58:49;;;;;;;8.17;6.03;;;;;;;8.63;100.00;96458.41;5013177;28;20206;-85
2021/03/06 02:01:16;;;;;;;6.53;5.50;;;;;;;8.48;100.00;96457.19;5013314;28;20243;-85
2021/03/06 02:03:44;;;;;;;7.20;6.27;;;;;;;8.29;100.00;96445.75;5013176;28;20219;-85
2021/03/06 02:06:11;;;;;;;7.23;5.40;;;;;;;8.22;100.00;96455.13;5013043;28;20290;-85
2021/03/06 02:08:37;;;;;;;9.93;6.50;;;;;;;8.17;100.00;96443.41;5012825;28;20342;-84
2021/03/06 02:11:04;;;;;;;6.53;5.70;;;;;;;8.16;100.00;96439.16;5012856;28;20207;-85
2021/03/06 02:13:52;;;;;;;6.67;5.97;;;;;;;8.56;100.00;96437.19;5012755;28;20203;-85
2021/03/06 02:16:27;;;;;;;8.37;5.93;;;;;;;8.67;100.00;96443.22;5013134;28;20219;-85
2021/03/06 02:19:01;;;;;;;9.03;7.23;;;;;;;8.67;100.00;96438.81;5012732;28;20187;-85
2021/03/06 02:21:57;;;;;;;9.63;6.90;;;;;;;8.69;100.00;96438.66;5012761;28;20667;-85
2021/03/06 02:24:51;;;;;;;8.40;6.30;;;;;;;8.74;100.00;96449.56;5012609;28;20191;-85
2021/03/06 02:27:25;;;;;;;8.03;7.23;;;;;;;8.34;100.00;96450.56;5010172;28;20238;-85
2021/03/06 02:29:57;;;;;;;10.13;6.53;;;;;;;8.39;100.00;96450.19;5012700;28;20191;-85
2021/03/06 02:32:28;;;;;;;8.90;6.00;;;;;;;8.16;100.00;96450.44;5012605;28;20194;-85
2021/03/06 02:35:16;;;;;;;7.60;6.53;;;;;;;7.99;100.00;96441.50;5012897;28;20188;-85
2021/03/06 02:37:45;;;;;;;8.13;6.70;;;;;;;7.86;100.00;96447.03;5008151;28;20273;-84
2021/03/06 02:40:14;;;;;;;8.97;6.60;;;;;;;7.82;100.00;96455.25;5012340;28;20290;-85
2021/03/06 02:42:42;;;;;;;9.40;6.20;;;;;;;8.00;100.00;96458.03;5012618;28;20810;-85
2021/03/06 02:45:11;;;;;;;9.07;6.67;;;;;;;8.19;100.00;96458.03;5012341;28;20290;-85
2021/03/06 02:47:38;;;;;;;10.50;6.47;;;;;;;8.07;100.00;96459.13;5012202;28;20274;-85
2021/03/06 02:50:08;;;;;;;7.40;6.57;;;;;;;8.38;100.00;96461.63;5012472;28;20764;-84
2021/03/06 02:52:35;;;;;;;7.73;5.60;;;;;;;8.40;100.00;96468.38;5012179;28;20241;-85
2021/03/06 02:55:02;;;;;;;8.67;6.23;;;;;;;8.35;100.00;96465.34;5012612;28;20203;-86
2021/03/06 02:57:45;;;;;;;10.73;6.53;;;;;;;8.45;100.00;96473.19;5012398;28;20200;-85
2021/03/06 03:00:27;;;;;;;8.10;6.27;;;;;;;8.40;100.00;96470.16;5012492;28;20290;-85
2021/03/06 03:03:02;;;;;;;8.47;6.23;;;;;;;8.29;100.00;96466.69;5012098;28;20212;-85
2021/03/06 03:05:36;;;;;;;11.57;6.60;;;;;;;7.98;100.00;96475.66;5013619;28;20226;-85
2021/03/06 03:08:08;;;;;;;9.83;6.67;;;;;;;7.81;100.00;96470.16;5016296;28;20669;-85
2021/03/06 03:10:38;;;;;;;7.83;6.90;;;;;;;7.60;100.00;96472.06;5016284;28;20194;-85
2021/03/06 03:13:11;;;;;;;7.70;6.00;;;;;;;7.66;100.00;96473.31;5016083;28;20207;-85
2021/03/06 03:15:41;;;;;;;9.80;5.93;;;;;;;8.04;100.00;96488.22;5016203;28;20180;-85
2021/03/06 03:18:14;;;;;;;6.87;6.17;;;;;;;7.76;100.00;96489.81;5016042;28;20183;-85
2021/03/06 03:20:45;;;;;;;8.53;6.10;;;;;;;7.68;100.00;96487.06;5016013;28;20714;-85
2021/03/06 03:23:16;;;;;;;7.13;6.37;;;;;;;7.55;100.00;96480.31;5015917;28;20274;-85
2021/03/06 03:25:45;;;;;;;9.97;6.17;;;;;;;7.65;100.00;96488.16;5016251;28;20192;-84
2021/03/06 03:28:14;;;;;;;9.17;6.53;;;;;;;7.81;100.00;96487.63;5015773;28;20203;-85
2021/03/06 03:30:42;;;;;;;6.63;5.93;;;;;;;7.95;100.00;96489.03;5016218;28;20315;-85
2021/03/06 03:33:11;;;;;;;7.03;5.93;;;;;;;7.83;100.00;96497.00;5015661;28;20235;-85
2021/03/06 03:35:39;;;;;;;6.70;5.73;;;;;;;8.08;100.00;96492.22;5015666;28;20205;-85
2021/03/06 03:38:07;;;;;;;8.17;6.20;;;;;;;7.98;100.00;96486.97;5015934;28;20556;-85
2021/03/06 03:40:34;;;;;;;9.87;6.27;;;;;;;7.70;100.00;96493.00;5015790;28;20203;-85
2021/03/06 03:43:02;;;;;;;6.97;5.87;;;;;;;7.48;100.00;96501.88;5015955;28;20226;-85
2021/03/06 03:45:30;;;;;;;7.13;6.43;;;;;;;7.31;100.00;96506.81;5015526;28;20203;-83
2021/03/06 03:47:59;;;;;;;6.87;6.17;;;;;;;7.24;100.00;96508.28;5014229;28;20242;-85
2021/03/06 03:50:27;;;;;;;6.77;6.07;;;;;;;7.42;100.00;96512.91;5014498;28;20287;-85
2021/03/06 03:52:54;;;;;;;8.87;6.30;;;;;;;7.44;100.00;96514.41;5014496;28;20278;-85
2021/03/06 03:55:21;;;;;;;7.93;6.20;;;;;;;7.38;100.00;96521.00;5014347;28;20734;-85
2021/03/06 03:57:49;;;;;;;9.83;7.00;;;;;;;7.50;100.00;96524.34;5014265;28;20673;-85
2021/03/06 04:00:18;;;;;;;8.33;6.57;;;;;;;7.47;100.00;96534.22;5014148;28;20199;-85
2021/03/06 04:02:45;;;;;;;7.63;6.80;;;;;;;7.33;100.00;96538.84;5014021;28;20258;-85
2021/03/06 04:05:14;;;;;;;10.43;6.63;;;;;;;7.58;100.00;96547.19;5013852;28;20230;-85
2021/03/06 04:07:45;;;;;;;9.90;7.23;;;;;;;7.44;100.00;96548.41;5014275;28;20195;-85
2021/03/06 04:10:13;;;;;;;6.93;6.17;;;;;;;7.35;100.00;96536.94;5014107;28;20199;-85
2021/03/06 04:12:41;;;;;;;7.07;5.93;;;;;;;7.32;100.00;96531.97;5013728;28;20253;-85
2021/03/06 04:15:09;;;;;;;10.43;6.67;;;;;;;7.29;100.00;96534.84;5014080;28;20218;-85
2021/03/06 04:17:37;;;;;;;9.80;6.80;;;;;;;7.26;100.00;96529.88;5014195;28;20195;-85
2021/03/06 04:20:05;;;;;;;7.50;6.50;;;;;;;7.29;100.00;96527.00;5013895;28;20239;-85
2021/03/06 04:22:33;;;;;;;8.80;6.53;;;;;;;7.29;100.00;96524.41;5014077;28;20285;-85
2021/03/06 04:24:59;;;;;;;19.23;13.20;;;;;;;7.32;100.00;96513.69;5014048;28;20654;-85
2021/03/06 04:27:27;;;;;;;127.93;75.47;;;;;;;7.57;100.00;96516.78;5013800;28;20195;-85
2021/03/06 04:29:53;;;;;;;66.17;40.87;;;;;;;7.67;100.00;96519.44;5013889;28;20278;-85
2021/03/06 04:32:20;;;;;;;87.33;51.40;;;;;;;7.31;100.00;96508.59;5012673;28;20211;-86
2021/03/06 04:34:47;;;;;;;36.70;24.30;;;;;;;7.15;100.00;96507.28;5011640;28;20261;-82
2021/03/06 04:37:14;;;;;;;21.30;13.43;;;;;;;7.00;100.00;96513.00;5009836;28;20231;-85
2021/03/06 04:39:42;;;;;;;11.57;10.23;;;;;;;7.15;100.00;96516.91;5007999;28;20672;-82
2021/03/06 04:42:09;;;;;;;14.20;9.50;;;;;;;7.24;100.00;96513.53;5012827;28;20286;-84
2021/03/06 04:44:36;;;;;;;20.30;12.60;;;;;;;7.45;100.00;96520.44;5018390;28;20939;-85
2021/03/06 04:47:04;;;;;;;17.63;10.80;;;;;;;7.58;100.00;96524.47;4981318;28;931370;-85
2021/03/06 04:49:31;;;;;;;17.17;10.27;;;;;;;7.44;100.00;96529.25;5014132;28;20199;-85
2021/03/06 04:51:58;;;;;;;15.47;10.77;;;;;;;7.63;100.00;96530.16;5014550;28;20257;-85
2021/03/06 04:54:25;;;;;;;16.37;12.00;;;;;;;7.65;100.00;96535.25;5014105;28;20286;-85
2021/03/06 04:56:53;;;;;;;16.80;12.57;;;;;;;7.63;100.00;96537.19;5013855;28;20200;-86
2021/03/06 04:59:20;;;;;;;47.17;26.47;;;;;;;7.62;100.00;96540.75;5014162;28;20230;-85
2021/03/06 05:01:59;;;;;;;42.87;28.10;;;;;;;7.28;100.00;96538.44;5014039;28;20195;-85
2021/03/06 05:04:26;;;;;;;43.17;27.77;;;;;;;7.29;100.00;96554.94;5013526;28;20226;-85
2021/03/06 05:06:53;;;;;;;11.67;9.63;;;;;;;7.21;100.00;96562.63;5014181;28;20203;-85
2021/03/06 05:09:20;;;;;;;17.13;13.00;;;;;;;7.18;100.00;96557.66;5014322;28;20282;-85
2021/03/06 05:12:03;;;;;;;13.47;10.70;;;;;;;7.07;100.00;96561.19;5013996;28;20202;-85
2021/03/06 05:14:36;;;;;;;12.83;9.90;;;;;;;6.98;100.00;96568.00;5013040;28;20203;-86
2021/03/06 05:17:03;;;;;;;15.13;10.00;;;;;;;6.96;100.00;96561.25;5013355;28;20348;-86
2021/03/06 05:19:31;;;;;;;12.50;9.23;;;;;;;6.98;100.00;96568.00;5013313;28;20199;-86
2021/03/06 05:21:58;;;;;;;11.00;8.63;;;;;;;7.03;100.00;96572.84;5013366;28;20191;-86
2021/03/06 05:24:31;;;;;;;13.50;8.63;;;;;;;7.07;100.00;96566.41;5014069;28;20689;-86
2021/03/06 05:27:03;;;;;;;11.00;8.57;;;;;;;7.16;100.00;96568.22;5013522;28;20199;-88
2021/03/06 05:29:32;;;;;;;13.27;8.83;;;;;;;7.15;100.00;96562.19;5013373;28;20527;-86
2021/03/06 05:32:00;;;;;;;11.07;9.60;;;;;;;7.38;100.00;96560.22;5013341;28;20576;-87
2021/03/06 05:34:41;;;;;;;;;;;;;;;;;;;;;
2021/03/06 05:37:09;;;;;;;35.73;23.83;;;;;;;7.52;100.00;96561.66;5018712;28;20717;-87
2021/03/06 05:39:36;;;;;;;26.03;18.53;;;;;;;7.34;100.00;96573.66;5013001;28;20313;-87
2021/03/06 05:42:06;;;;;;;14.43;12.33;;;;;;;7.43;100.00;96569.47;5013031;28;20200;-86
2021/03/06 05:44:35;;;;;;;10.93;9.50;;;;;;;7.66;100.00;96572.72;5013047;28;20226;-86
2021/03/06 05:47:03;;;;;;;11.33;9.47;;;;;;;7.91;100.00;96574.03;5012549;28;20226;-85
2021/03/06 05:49:29;;;;;;;10.03;7.87;;;;;;;8.12;100.00;96579.97;5013162;28;20199;-86
2021/03/06 05:51:58;;;;;;;8.73;7.80;;;;;;;8.20;100.00;96584.53;5012932;28;20242;-86
2021/03/06 05:54:27;;;;;;;17.73;10.60;;;;;;;8.11;100.00;96583.56;5012503;28;20206;-87
2021/03/06 05:56:58;;;;;;;10.93;9.83;;;;;;;7.93;100.00;96585.16;5012916;28;20191;-86
2021/03/06 05:59:29;;;;;;;13.13;10.33;;;;;;;7.77;100.00;96583.06;5013086;28;20195;-86
2021/03/06 06:01:58;;;;;;;78.23;44.60;;;;;;;7.78;100.00;96584.72;5012536;28;20195;-86
2021/03/06 06:04:36;;;;;;;27.13;18.00;;;;;;;7.99;100.00;96592.47;5012704;28;20237;-86
2021/03/06 06:07:04;;;;;;;19.13;15.10;;;;;;;8.29;100.00;96596.81;5012672;28;20281;-86
2021/03/06 06:09:34;;;;;;;29.53;26.33;;;;;;;8.44;100.00;96607.75;5012896;28;20239;-86
2021/03/06 06:12:01;;;;;;;24.73;21.17;;;;;;;8.59;100.00;96614.25;5012427;28;20211;-86
2021/03/06 06:14:28;;;;;;;21.40;17.57;;;;;;;8.65;100.00;96612.84;5012365;28;20239;-86
2021/03/06 06:16:54;;;;;;;16.03;12.57;;;;;;;8.46;100.00;96618.91;5010935;28;20227;-86
2021/03/06 06:19:23;;;;;;;18.13;13.47;;;;;;;8.16;100.00;96611.94;5011238;28;20214;-83
2021/03/06 06:21:51;;;;;;;13.67;10.73;;;;;;;8.12;100.00;96614.00;5011879;28;20604;-81
2021/03/06 06:24:19;;;;;;;18.00;10.97;;;;;;;8.43;100.00;96616.56;5011642;28;20231;-81
2021/03/06 06:26:56;;;;;;;9.90;8.90;;;;;;;8.27;100.00;96624.91;5012139;28;20191;-82
2021/03/06 06:29:37;;;;;;;10.17;8.50;;;;;;;8.32;100.00;96626.19;5012118;28;20199;-84
2021/03/06 06:32:05;;;;;;;9.30;8.40;;;;;;;8.53;100.00;96625.25;5012785;28;20553;-84
2021/03/06 06:34:33;;;;;;;15.47;8.33;;;;;;;8.87;100.00;96637.94;5011999;28;20195;-84
2021/03/06 06:37:07;;;;;;;12.30;8.00;;;;;;;9.10;100.00;96641.91;5012425;28;20198;-84
2021/03/06 06:39:34;;;;;;;8.27;7.47;;;;;;;9.27;100.00;96646.44;5012197;28;20227;-84
2021/03/06 06:42:02;;;;;;;15.20;11.83;;;;;;;9.36;100.00;96647.41;5012274;28;20199;-84
2021/03/06 06:44:31;;;;;;;18.80;14.10;;;;;;;9.35;100.00;96653.63;5010177;28;20230;-84
2021/03/06 06:46:58;;;;;;;30.13;22.23;;;;;;;9.46;100.00;96656.09;5011955;28;20338;-84
2021/03/06 06:49:26;;;;;;;10.30;8.50;;;;;;;9.20;100.00;96665.50;5012083;28;20203;-83
2021/03/06 06:52:02;;;;;;;10.30;9.20;;;;;;;9.20;100.00;96665.50;5010460;28;20246;-83
2021/03/06 06:54:29;;;;;;;15.50;11.13;;;;;;;9.21;100.00;96667.16;5012217;28;20589;-83
2021/03/06 06:57:09;;;;;;;8.97;8.07;;;;;;;9.35;100.00;96672.00;5012065;28;20202;-83
2021/03/06 06:59:37;;;;;;;11.43;10.23;;;;;;;9.47;100.00;96685.78;5011989;28;20275;-84
2021/03/06 07:02:22;;;;;;;14.73;10.70;;;;;;;9.62;100.00;96688.75;5011741;28;20227;-83
2021/03/06 07:04:51;;;;;;;17.20;14.30;;;;;;;9.94;100.00;96694.47;5012055;28;20280;-84
2021/03/06 07:07:22;;;;;;;21.30;12.57;;;;;;;10.00;100.00;96690.44;5011515;28;20668;-83
2021/03/06 07:10:03;;;;;;;33.07;19.73;;;;;;;9.76;100.00;96699.63;5011612;28;20669;-83
2021/03/06 07:12:32;;;;;;;21.30;14.20;;;;;;;9.93;100.00;96697.22;5011496;28;20234;-84
2021/03/06 07:14:59;;;;;;;15.80;12.77;;;;;;;10.07;100.00;96704.63;5012100;28;20195;-83
2021/03/06 07:17:38;;;;;;;19.40;12.57;;;;;;;10.19;100.00;96700.03;5011713;28;20195;-84
2021/03/06 07:20:07;;;;;;;38.13;23.63;;;;;;;10.45;100.00;96705.47;5011493;28;20192;-83
2021/03/06 07:22:35;;;;;;;16.67;11.73;;;;;;;10.61;100.00;96705.66;5011542;28;20207;-83
2021/03/06 07:25:02;;;;;;;15.67;11.00;;;;;;;10.80;100.00;96715.19;5011493;28;20203;-83
2021/03/06 07:27:28;;;;;;;11.97;10.23;;;;;;;10.88;100.00;96715.28;5011632;28;20203;-84
2021/03/06 07:29:55;;;;;;;17.00;11.07;;;;;;;11.16;100.00;96721.31;5011753;28;20641;-84
2021/03/06 07:32:29;;;;;;;13.43;10.27;;;;;;;11.14;100.00;96720.63;5011666;28;20203;-84
2021/03/06 07:35:02;;;;;;;14.63;10.73;;;;;;;11.25;100.00;96721.38;5011773;28;20192;-84
2021/03/06 07:37:31;;;;;;;13.27;10.70;;;;;;;11.28;100.00;96729.78;5011613;28;20249;-84
2021/03/06 07:40:01;;;;;;;12.13;9.13;;;;;;;11.09;100.00;96736.03;5011343;28;20200;-84
2021/03/06 07:42:36;;;;;;;12.50;10.13;;;;;;;11.23;100.00;96734.69;5011725;28;20227;-85
2021/03/06 07:45:05;;;;;;;12.37;10.53;;;;;;;11.21;100.00;96733.16;5011851;28;20664;-85
2021/03/06 07:47:37;;;;;;;10.93;9.20;;;;;;;11.23;100.00;96731.22;5010962;28;20227;-85
2021/03/06 07:50:06;;;;;;;12.90;9.77;;;;;;;11.05;100.00;96739.94;5011593;28;20531;-84
2021/03/06 07:52:37;;;;;;;13.33;9.97;;;;;;;11.22;100.00;96740.06;5013772;28;20294;-85
2021/03/06 07:55:09;;;;;;;10.27;9.13;;;;;;;11.24;100.00;96746.84;5014876;28;20187;-86
2021/03/06 07:58:00;;;;;;;11.07;9.53;;;;;;;11.29;100.00;96735.88;5014838;28;20661;-86
2021/03/06 08:00:42;;;;;;;10.67;9.57;;;;;;;11.34;100.00;96747.59;5014378;28;20699;-85
2021/03/06 08:03:36;;;;;;;13.50;9.40;;;;;;;11.28;100.00;96750.00;5011601;28;20269;-85
2021/03/06 08:06:15;;;;;;;10.63;9.10;;;;;;;11.26;100.00;96738.81;4916905;29;20302;-84
2021/03/06 08:09:00;;;;;;;13.20;10.00;;;;;;;11.39;100.00;96747.13;4925841;29;20289;-84
2021/03/06 08:11:56;;;;;;;10.93;9.27;;;;;;;11.34;100.00;96747.59;4934814;29;20271;-83
2021/03/06 08:14:29;;;;;;;9.73;8.60;;;;;;;11.10;100.00;96745.56;4918538;29;20199;-84
2021/03/06 08:16:58;;;;;;;14.17;9.67;;;;;;;11.15;100.00;96751.22;4915763;29;20200;-85
2021/03/06 08:19:32;;;;;;;9.80;8.73;;;;;;;11.29;100.00;96754.28;4915685;29;20242;-83
2021/03/06 08:22:17;;;;;;;11.20;9.03;;;;;;;11.17;100.00;96754.53;4915725;29;20199;-82
2021/03/06 08:24:45;;;;;;;20.87;12.97;;;;;;;11.08;100.00;96765.94;4915828;29;20319;-82
2021/03/06 08:27:21;;;;;;;10.40;9.10;;;;;;;10.88;100.00;96759.19;4915675;29;20315;-83
2021/03/06 08:29:52;;;;;;;13.10;9.60;;;;;;;10.81;100.00;96758.13;4915304;29;20199;-82
2021/03/06 08:32:35;;;;;;;13.30;10.43;;;;;;;11.10;100.00;96752.66;4915595;29;20224;-84
2021/03/06 08:35:21;;;;;;;11.23;9.13;;;;;;;11.09;100.00;96762.34;4915990;29;20214;-85
2021/03/06 08:37:49;;;;;;;11.70;8.87;;;;;;;11.08;100.00;96757.22;4915429;29;20214;-83
2021/03/06 08:40:19;;;;;;;9.73;8.07;;;;;;;11.20;100.00;96756.03;4915081;29;20211;-83
2021/03/06 08:42:49;;;;;;;9.90;7.80;;;;;;;11.27;100.00;96759.72;4988618;28;20294;-83
2021/03/06 08:45:22;;;;;;;8.23;6.97;;;;;;;11.21;100.00;96768.19;4994658;28;20296;-83
2021/03/06 08:47:53;;;;;;;9.20;7.13;;;;;;;11.14;100.00;96767.16;4993208;28;20680;-83
2021/03/06 08:50:23;;;;;;;8.90;7.23;;;;;;;11.05;100.00;96771.53;4994332;28;20276;-83
2021/03/06 08:52:58;;;;;;;7.37;6.33;;;;;;;11.09;100.00;96777.31;4994252;28;20196;-83
2021/03/06 08:55:29;;;;;;;9.87;7.57;;;;;;;11.08;100.00;96780.88;4994172;28;20195;-83
2021/03/06 08:58:00;;;;;;;8.30;6.77;;;;;;;10.99;100.00;96784.44;4994091;28;20197;-82
2021/03/06 09:00:30;;;;;;;7.50;6.67;;;;;;;11.12;100.00;96779.66;4993942;28;20650;-83
2021/03/06 09:02:58;;;;;;;7.53;5.93;;;;;;;10.91;100.00;96779.88;4997725;28;20235;-83
2021/03/06 09:05:26;;;;;;;7.37;5.93;;;;;;;10.98;100.00;96783.63;5013433;28;20680;-83
2021/03/06 09:07:55;;;;;;;7.37;5.90;;;;;;;10.94;100.00;96790.97;5013533;28;20757;-83
2021/03/06 09:10:35;;;;;;;7.67;5.97;;;;;;;11.21;100.00;96794.50;5013361;28;20290;-82
2021/03/06 09:13:05;;;;;;;7.23;6.07;;;;;;;11.06;100.00;96790.75;5014229;28;20191;-87
2021/03/06 09:15:36;;;;;;;7.60;6.50;;;;;;;11.09;100.00;96793.09;5014186;28;20665;-87
2021/03/06 09:18:06;;;;;;;7.97;6.77;;;;;;;11.39;100.00;96792.69;5014176;28;20188;-87
2021/03/06 09:20:41;;;;;;;8.80;6.50;;;;;;;11.22;100.00;96800.59;5014452;28;20645;-88
2021/03/06 09:23:09;;;;;;;8.30;6.33;;;;;;;11.36;100.00;96797.44;5014017;28;20234;-87
2021/03/06 09:25:39;;;;;;;8.23;6.20;;;;;;;11.35;100.00;96795.78;5013961;28;20203;-87
2021/03/06 09:28:10;;;;;;;9.37;6.30;;;;;;;11.43;100.00;96804.59;5014373;28;20187;-88
2021/03/06 09:30:40;;;;;;;6.77;6.07;;;;;;;11.11;100.00;96806.91;5014351;28;20616;-87
2021/03/06 09:33:23;;;;;;;6.30;5.70;;;;;;;11.01;100.00;96801.69;5014455;28;20303;-88
2021/03/06 09:36:01;;;;;;;6.63;5.27;;;;;;;10.98;100.00;96802.03;5014289;28;20188;-88
2021/03/06 09:38:28;;;;;;;6.07;5.13;;;;;;;10.94;100.00;96819.03;5013760;28;20287;-88
2021/03/06 09:40:56;;;;;;;6.63;5.83;;;;;;;11.09;100.00;96814.97;5014087;28;20204;-87
2021/03/06 09:43:33;;;;;;;7.53;5.47;;;;;;;10.94;100.00;96821.69;5013561;28;20223;-87
2021/03/06 09:46:01;;;;;;;8.33;6.03;;;;;;;11.14;100.00;96807.44;5013452;28;20191;-88
2021/03/06 09:48:29;;;;;;;9.00;6.00;;;;;;;11.39;100.00;96811.13;5013995;28;20235;-87
2021/03/06 09:50:57;;;;;;;7.83;6.67;;;;;;;11.47;100.00;96807.75;5013624;28;20206;-87
2021/03/06 09:53:26;;;;;;;7.90;5.87;;;;;;;11.55;100.00;96815.72;5013681;28;20290;-88
2021/03/06 09:56:07;;;;;;;7.63;6.83;;;;;;;11.55;100.00;96826.25;5013883;28;20196;-87
2021/03/06 09:58:35;;;;;;;6.63;5.97;;;;;;;11.35;100.00;96822.13;5013865;28;20203;-87
2021/03/06 10:01:13;;;;;;;8.90;6.23;;;;;;;11.40;100.00;96820.69;5013970;28;20199;-87
2021/03/06 10:03:40;;;;;;;9.07;6.23;;;;;;;11.88;100.00;96834.44;5013745;28;20635;-89
2021/03/06 10:06:10;;;;;;;7.70;6.50;;;;;;;11.71;100.00;96825.59;5013983;28;20290;-88
2021/03/06 10:08:39;;;;;;;8.33;6.50;;;;;;;11.70;100.00;96834.44;5013568;28;20672;-88
2021/03/06 10:11:06;;;;;;;6.37;5.73;;;;;;;11.49;100.00;96834.75;5013461;28;20247;-88
2021/03/06 10:13:34;;;;;;;6.70;6.00;;;;;;;11.60;100.00;96833.69;5013512;28;20242;-88
2021/03/06 10:16:03;;;;;;;6.60;5.90;;;;;;;11.39;100.00;96832.19;5013056;28;20203;-88
2021/03/06 10:18:29;;;;;;;8.80;6.97;;;;;;;11.56;100.00;96838.44;5013240;28;20220;-88
2021/03/06 10:20:57;;;;;;;7.27;5.70;;;;;;;11.49;100.00;96840.00;5013287;28;20282;-89
2021/03/06 10:23:34;;;;;;;5.77;5.17;;;;;;;11.50;100.00;96839.06;5013421;28;20234;-88
2021/03/06 10:26:24;;;;;;;6.10;4.83;;;;;;;11.47;100.00;96839.34;5013176;28;20222;-88
2021/03/06 10:28:55;;;;;;;6.33;5.50;;;;;;;11.59;100.00;96843.41;5009096;28;20205;-88
2021/03/06 10:31:36;;;;;;;6.23;4.77;;;;;;;11.51;100.00;96843.34;5013095;28;20192;-88
2021/03/06 10:34:20;;;;;;;5.07;4.57;;;;;;;11.33;100.00;96845.13;5013465;28;20186;-88
2021/03/06 10:37:09;;;;;;;5.23;4.30;;;;;;;11.46;100.00;96842.13;5013143;28;20206;-88
2021/03/06 10:39:50;;;;;;;5.37;4.67;;;;;;;11.33;100.00;96842.50;5013404;28;20188;-88
2021/03/06 10:42:17;;;;;;;4.70;4.10;;;;;;;11.66;100.00;96839.19;5012932;28;20198;-88
2021/03/06 10:44:45;;;;;;;4.23;3.87;;;;;;;12.34;100.00;96838.56;5012747;28;20313;-88
2021/03/06 10:47:11;;;;;;;5.30;4.80;;;;;;;12.76;100.00;96831.72;5012587;28;20322;-88
2021/03/06 10:49:39;;;;;;;5.57;4.77;;;;;;;13.76;100.00;96828.19;5012756;28;20203;-88
2021/03/06 10:52:11;;;;;;;4.70;4.20;;;;;;;13.77;100.00;96831.63;5012688;28;20192;-89
2021/03/06 10:54:49;;;;;;;3.97;3.63;;;;;;;13.70;100.00;96835.94;5014641;28;20202;-88
2021/03/06 10:57:16;;;;;;;4.50;4.10;;;;;;;13.87;100.00;96834.94;5015017;28;20720;-88
2021/03/06 10:59:44;;;;;;;7.63;5.23;;;;;;;14.02;100.00;96837.75;5013140;28;20756;-88
2021/03/06 11:02:24;;;;;;;9.13;6.33;;;;;;;14.45;100.00;96825.97;5012533;28;20203;-88
2021/03/06 11:04:51;;;;;;;10.07;5.70;;;;;;;14.25;100.00;96835.25;5012609;28;20269;-88
2021/03/06 11:07:27;;;;;;;10.43;7.10;;;;;;;14.02;100.00;96817.41;5013162;28;20203;-89
2021/03/06 11:09:57;;;;;;;4.50;3.80;;;;;;;14.16;100.00;96836.25;5012558;28;20187;-88
2021/03/06 11:12:28;;;;;;;6.47;4.60;;;;;;;13.73;100.00;96825.88;5013083;28;20191;-88
2021/03/06 11:15:13;;;;;;;4.20;3.80;;;;;;;14.39;100.00;96831.91;5012349;28;20184;-88
2021/03/06 11:17:44;;;;;;;4.77;4.37;;;;;;;14.74;100.00;96835.16;5012750;28;20188;-88
2021/03/06 11:20:13;;;;;;;6.13;3.20;;;;;;;15.05;100.00;96831.72;5012473;28;20677;-88
2021/03/06 11:22:40;;;;;;;4.13;3.77;;;;;;;14.52;100.00;96830.63;5012151;28;20196;-88
2021/03/06 11:25:10;;;;;;;4.43;3.47;;;;;;;14.34;100.00;96825.47;5012441;28;20314;-88
2021/03/06 11:27:48;;;;;;;7.83;6.13;;;;;;;14.49;100.00;96826.44;5015192;28;20206;-88
2021/03/06 11:30:18;;;;;;;8.03;6.07;;;;;;;14.63;100.00;96836.34;5015780;28;20274;-89
2021/03/06 11:32:46;;;;;;;4.33;3.93;;;;;;;15.11;100.00;96826.56;5016281;28;20207;-88
2021/03/06 11:35:14;;;;;;;4.57;3.97;;;;;;;15.75;100.00;96807.81;5016507;28;20250;-89
2021/03/06 11:37:41;;;;;;;3.17;2.97;;;;;;;15.33;100.00;96816.19;5016410;28;20250;-88
2021/03/06 11:40:09;;;;;;;3.13;2.93;;;;;;;15.09;100.00;96817.16;5016463;28;20673;-88
2021/03/06 11:42:37;;;;;;;8.23;7.23;;;;;;;15.12;100.00;96825.56;5016670;28;20219;-88